Time;durP1;ratioP1;P1;durP2;ratioP2;P2;SDS_P1;SDS_P2;PMS_P1;PMS_P2;Temp;Humidity;BMP_temperature;BMP_pressure;BME280_temperature;BME280_humidity;BME280_pressure;Samples;Min_cycle;Max_cycle;Signal;HPM_P1;HPM_P2
2021/06/03 00:02:24;;;;;;;7.47;3.65;;;13.10;56.50;;;;;;5064877;28;20057;-80
2021/06/03 00:04:49;;;;;;;5.95;3.50;;;13.00;56.60;;;;;;5055717;28;20428;-80
2021/06/03 00:07:15;;;;;;;6.25;3.25;;;13.00;56.70;;;;;;5056772;28;20023;-82
2021/06/03 00:09:42;;;;;;;7.82;4.50;;;12.90;56.70;;;;;;5064378;28;20029;-82
2021/06/03 00:12:09;;;;;;;5.63;3.13;;;12.90;56.90;;;;;;5053160;28;20492;-82
2021/06/03 00:14:35;;;;;;;9.63;4.00;;;12.90;57.00;;;;;;5053433;28;20103;-82
2021/06/03 00:17:02;;;;;;;8.15;4.07;;;12.80;57.20;;;;;;5053928;28;20037;-82
2021/06/03 00:19:27;;;;;;;6.90;3.45;;;12.80;57.20;;;;;;5072073;28;20090;-81
2021/06/03 00:21:54;;;;;;;7.80;4.32;;;12.80;57.40;;;;;;5072344;28;20103;-81
2021/06/03 00:24:21;;;;;;;13.97;5.03;;;12.80;57.70;;;;;;5072048;28;20481;-81
2021/06/03 00:26:47;;;;;;;9.68;4.63;;;12.70;57.60;;;;;;5073318;28;20131;-81
2021/06/03 00:29:14;;;;;;;6.70;4.18;;;12.70;57.80;;;;;;5060799;28;20111;-81
2021/06/03 00:31:41;;;;;;;11.38;3.92;;;12.70;57.80;;;;;;5057197;28;20385;-82
2021/06/03 00:34:06;;;;;;;9.38;4.22;;;12.60;57.80;;;;;;5070418;28;20370;-81
2021/06/03 00:36:32;;;;;;;11.10;5.20;;;12.60;58.20;;;;;;5071442;28;20043;-82
2021/06/03 00:38:59;;;;;;;9.52;4.35;;;12.60;58.20;;;;;;5070131;28;20024;-81
2021/06/03 00:41:25;;;;;;;11.02;4.05;;;12.60;58.10;;;;;;5072883;28;20405;-80
2021/06/03 00:43:51;;;;;;;7.97;3.95;;;12.50;58.20;;;;;;5075800;28;20521;-81
2021/06/03 00:46:16;;;;;;;10.00;4.28;;;12.50;58.20;;;;;;5075393;28;20099;-83
2021/06/03 00:48:43;;;;;;;9.65;4.53;;;12.50;57.90;;;;;;5072381;28;20485;-82
2021/06/03 00:51:10;;;;;;;5.60;4.07;;;12.50;57.90;;;;;;5074662;28;20071;-82
2021/06/03 00:53:38;;;;;;;10.98;4.95;;;12.60;57.90;;;;;;5075863;28;20023;-82
2021/06/03 00:56:05;;;;;;;8.98;4.57;;;12.50;58.00;;;;;;5075785;28;20036;-82
2021/06/03 00:58:31;;;;;;;7.60;3.63;;;12.50;58.10;;;;;;5077095;28;20032;-82
2021/06/03 01:00:58;;;;;;;7.70;3.50;;;12.50;58.30;;;;;;5068654;28;20029;-82
2021/06/03 01:03:25;;;;;;;7.35;3.92;;;12.50;58.50;;;;;;5070873;28;20078;-81
2021/06/03 01:05:54;;;;;;;8.07;4.07;;;12.40;58.60;;;;;;5074517;28;20440;-81
2021/06/03 01:08:50;;;;;;;8.90;4.47;;;12.40;58.70;;;;;;5075746;28;20020;-81
2021/06/03 01:11:22;;;;;;;5.47;3.25;;;12.40;58.80;;;;;;5065710;28;20021;-82
2021/06/03 01:14:09;;;;;;;6.20;3.63;;;12.30;58.90;;;;;;5075350;28;20024;-82
2021/06/03 01:16:36;;;;;;;6.87;3.77;;;12.30;59.10;;;;;;5076385;28;20100;-82
2021/06/03 01:19:11;;;;;;;8.70;3.38;;;12.30;59.20;;;;;;5076858;28;20016;-82
2021/06/03 01:21:48;;;;;;;8.60;3.72;;;12.30;59.20;;;;;;5078062;28;20096;-83
2021/06/03 01:24:29;;;;;;;4.90;3.80;;;12.30;59.10;;;;;;5075750;28;20042;-83
2021/06/03 01:26:59;;;;;;;10.73;3.75;;;12.30;59.10;;;;;;5075403;28;20041;-82
2021/06/03 01:29:28;;;;;;;6.70;3.63;;;12.20;59.40;;;;;;5061967;28;20029;-82
2021/06/03 01:31:55;;;;;;;8.27;3.55;;;12.20;59.50;;;;;;5075546;28;20031;-81
2021/06/03 01:34:24;;;;;;;4.30;3.65;;;12.20;59.70;;;;;;5074573;28;20067;-82
2021/06/03 01:36:51;;;;;;;5.18;3.05;;;12.20;59.60;;;;;;5066999;28;20131;-83
2021/06/03 01:39:18;;;;;;;5.23;3.07;;;12.20;60.00;;;;;;5081719;28;20055;-83
2021/06/03 01:41:45;;;;;;;9.02;3.35;;;12.20;59.50;;;;;;5097083;28;20058;-82
2021/06/03 01:44:12;;;;;;;7.25;3.10;;;12.20;59.50;;;;;;5078760;28;20066;-81
2021/06/03 01:46:39;;;;;;;8.05;3.47;;;12.30;59.50;;;;;;5075228;28;20028;-81
2021/06/03 01:49:05;;;;;;;8.98;3.50;;;12.30;59.20;;;;;;5075424;28;20021;-81
2021/06/03 01:51:31;;;;;;;7.68;3.50;;;12.30;58.90;;;;;;5074933;28;20029;-82
2021/06/03 01:53:58;;;;;;;7.32;3.45;;;12.40;58.80;;;;;;5063786;28;20070;-82
2021/06/03 01:56:24;;;;;;;7.95;3.50;;;12.40;58.70;;;;;;5071971;28;20037;-83
2021/06/03 01:58:50;;;;;;;5.28;3.45;;;12.40;58.60;;;;;;5075232;28;20020;-83
2021/06/03 02:01:19;;;;;;;7.53;3.13;;;12.40;58.40;;;;;;5086153;28;20021;-81
2021/06/03 02:03:45;;;;;;;6.40;3.38;;;12.40;58.20;;;;;;5083438;28;20024;-85
2021/06/03 02:06:11;;;;;;;6.90;2.92;;;12.50;58.20;;;;;;5077637;28;20031;-81
2021/06/03 02:08:37;;;;;;;10.20;3.88;;;12.50;58.20;;;;;;5075206;28;20397;-83
2021/06/03 02:11:04;;;;;;;5.30;3.20;;;12.50;58.00;;;;;;5074855;28;20024;-82
2021/06/03 02:13:30;;;;;;;4.35;3.15;;;12.50;58.00;;;;;;5074481;28;20534;-84
2021/06/03 02:15:55;;;;;;;5.13;3.20;;;12.60;57.90;;;;;;5073061;28;20028;-82
2021/06/03 02:18:30;;;;;;;6.50;3.28;;;12.60;57.70;;;;;;5074282;28;20031;-81
2021/06/03 02:20:58;;;;;;;6.72;3.25;;;12.60;57.40;;;;;;5074085;28;20023;-82
2021/06/03 02:23:25;;;;;;;4.60;3.45;;;12.70;57.30;;;;;;5074160;28;20027;-82
2021/06/03 02:25:53;;;;;;;4.55;3.05;;;12.70;57.00;;;;;;5073860;28;20020;-83
2021/06/03 02:28:19;;;;;;;4.45;2.85;;;12.70;56.90;;;;;;5074766;28;20019;-83
2021/06/03 02:30:45;;;;;;;5.75;3.15;;;12.70;56.90;;;;;;5073547;28;20020;-83
2021/06/03 02:33:11;;;;;;;7.95;2.83;;;12.70;56.80;;;;;;5074420;28;20021;-82
2021/06/03 02:35:38;;;;;;;6.68;2.80;;;12.80;56.00;;;;;;5073800;28;20032;-84
2021/06/03 02:38:04;;;;;;;6.70;2.97;;;12.90;56.10;;;;;;5074006;28;20016;-82
2021/06/03 02:40:31;;;;;;;6.28;2.70;;;12.90;55.70;;;;;;5073934;28;20021;-82
2021/06/03 02:42:58;;;;;;;6.60;3.05;;;12.90;55.60;;;;;;5073728;28;20020;-82
2021/06/03 02:45:28;;;;;;;6.55;3.03;;;13.00;55.60;;;;;;5073843;28;20020;-83
2021/06/03 02:47:55;;;;;;;5.15;3.10;;;13.10;55.40;;;;;;5073554;28;20090;-83
2021/06/03 02:50:23;;;;;;;5.60;3.10;;;13.10;54.80;;;;;;5073291;28;20020;-84
2021/06/03 02:52:51;;;;;;;6.88;3.50;;;13.10;55.00;;;;;;5072919;28;20074;-83
2021/06/03 02:55:20;;;;;;;5.50;2.55;;;13.20;54.80;;;;;;5067862;28;20024;-82
2021/06/03 02:57:47;;;;;;;8.18;3.42;;;13.40;54.40;;;;;;5076718;28;20428;-81
2021/06/03 03:00:25;;;;;;;7.88;3.28;;;13.50;54.10;;;;;;5079083;28;20048;-82
2021/06/03 03:02:51;;;;;;;7.95;3.05;;;13.60;53.40;;;;;;5076015;28;20071;-84
2021/06/03 03:05:17;;;;;;;5.82;3.00;;;13.70;53.30;;;;;;5074163;28;20025;-83
2021/06/03 03:07:43;;;;;;;5.85;2.85;;;13.70;52.80;;;;;;5075906;28;20031;-83
2021/06/03 03:10:13;;;;;;;5.65;3.35;;;13.80;52.40;;;;;;5076353;28;20066;-82
2021/06/03 03:12:39;;;;;;;6.63;3.35;;;13.80;52.80;;;;;;5075395;28;20021;-84
2021/06/03 03:15:07;;;;;;;6.65;2.88;;;13.90;52.60;;;;;;5075477;28;20100;-84
2021/06/03 03:17:34;;;;;;;5.95;3.50;;;14.00;51.70;;;;;;5081398;28;20066;-81
2021/06/03 03:20:02;;;;;;;6.20;3.10;;;14.10;51.80;;;;;;5082488;28;20024;-81
2021/06/03 03:22:28;;;;;;;6.57;2.95;;;14.10;51.80;;;;;;5076131;28;20029;-82
2021/06/03 03:24:53;;;;;;;5.43;2.53;;;14.20;51.60;;;;;;5074911;28;20042;-82
2021/06/03 03:27:20;;;;;;;7.85;3.42;;;14.20;51.30;;;;;;5073524;28;20064;-82
2021/06/03 03:29:46;;;;;;;5.20;3.22;;;14.20;51.40;;;;;;5075078;28;20032;-84
2021/06/03 03:32:11;;;;;;;5.30;3.05;;;14.30;51.20;;;;;;5074722;28;20554;-83
2021/06/03 03:34:37;;;;;;;6.25;2.65;;;14.40;50.90;;;;;;5074175;28;20035;-83
2021/06/03 03:37:03;;;;;;;5.35;3.15;;;14.40;50.80;;;;;;5073797;28;20036;-83
2021/06/03 03:39:29;;;;;;;7.10;3.00;;;14.40;50.90;;;;;;5074339;28;20039;-84
2021/06/03 03:41:55;;;;;;;9.35;3.47;;;14.50;50.60;;;;;;5074919;28;20036;-83
2021/06/03 03:44:21;;;;;;;7.63;2.67;;;14.50;50.50;;;;;;5077377;28;20021;-83
2021/06/03 03:46:47;;;;;;;9.50;3.03;;;14.60;50.30;;;;;;5086299;28;20039;-82
2021/06/03 03:49:13;;;;;;;7.28;3.22;;;14.60;50.50;;;;;;5095327;28;20076;-82
2021/06/03 03:51:39;;;;;;;5.15;2.65;;;14.70;50.30;;;;;;5075335;28;20145;-83
2021/06/03 03:54:05;;;;;;;9.50;2.95;;;14.70;50.10;;;;;;5074160;28;20401;-84
2021/06/03 03:56:31;;;;;;;4.70;2.50;;;14.80;50.10;;;;;;5073439;28;20037;-84
2021/06/03 03:58:58;;;;;;;8.98;4.45;;;14.80;50.00;;;;;;5073328;28;20020;-82
2021/06/03 04:01:27;;;;;;;7.10;4.45;;;14.80;50.00;;;;;;5075189;28;20024;-83
2021/06/03 04:03:53;;;;;;;6.90;3.75;;;14.90;50.20;;;;;;5082490;28;20047;-84
2021/06/03 04:06:19;;;;;;;7.82;3.90;;;14.90;49.90;;;;;;5076949;28;20416;-84
2021/06/03 04:08:45;;;;;;;9.55;4.70;;;14.90;49.80;;;;;;5074279;28;20020;-83
2021/06/03 04:11:11;;;;;;;7.97;4.22;;;14.90;50.20;;;;;;5073675;28;20051;-84
2021/06/03 04:13:37;;;;;;;6.88;4.38;;;15.10;49.60;;;;;;5073617;28;20021;-84
2021/06/03 04:16:03;;;;;;;9.13;4.47;;;15.10;49.50;;;;;;5074539;28;20036;-83
2021/06/03 04:18:29;;;;;;;14.25;6.25;;;15.10;49.60;;;;;;5074164;28;20017;-85
2021/06/03 04:20:55;;;;;;;6.40;3.55;;;15.10;49.50;;;;;;5072742;28;20091;-82
2021/06/03 04:23:21;;;;;;;6.10;3.20;;;15.00;49.50;;;;;;5072184;28;20028;-82
2021/06/03 04:25:47;;;;;;;9.30;2.58;;;15.00;49.70;;;;;;5071819;28;20024;-81
2021/06/03 04:28:13;;;;;;;6.45;2.88;;;15.20;49.50;;;;;;5072375;28;20040;-80
2021/06/03 04:30:42;;;;;;;4.90;2.50;;;15.30;49.30;;;;;;5072777;28;20028;-83
2021/06/03 04:33:09;;;;;;;7.78;2.40;;;15.40;48.60;;;;;;5072504;28;20099;-83
2021/06/03 04:35:36;;;;;;;7.95;2.63;;;15.40;48.80;;;;;;5072026;28;20509;-82
2021/06/03 04:38:03;;;;;;;4.70;2.55;;;15.60;48.70;;;;;;5072138;28;20025;-82
2021/06/03 04:40:30;;;;;;;7.73;3.33;;;15.70;48.40;;;;;;5064128;28;20013;-82
2021/06/03 04:42:58;;;;;;;8.23;3.67;;;15.70;48.00;;;;;;5071912;28;20257;-83
2021/06/03 04:45:24;;;;;;;;;;;15.80;48.10;;;;;;5072786;28;20019;-82
2021/06/03 04:47:50;;;;;;;6.82;2.75;;;15.80;47.90;;;;;;5071831;28;20004;-82
2021/06/03 04:50:19;;;;;;;6.00;2.40;;;15.80;47.80;;;;;;5074581;28;20020;-81
2021/06/03 04:52:46;;;;;;;8.30;2.85;;;15.90;47.60;;;;;;5070806;28;20085;-84
2021/06/03 04:55:18;;;;;;;4.45;2.40;;;15.90;47.70;;;;;;5073316;28;20028;-81
2021/06/03 04:57:45;;;;;;;6.25;2.83;;;16.10;47.70;;;;;;5074930;28;20107;-83
2021/06/03 05:00:14;;;;;;;7.25;2.15;;;16.20;47.20;;;;;;5074466;28;20042;-81
2021/06/03 05:02:41;;;;;;;3.22;1.70;;;16.30;46.00;;;;;;5073264;28;20158;-83
2021/06/03 05:05:08;;;;;;;12.77;3.35;;;16.30;45.90;;;;;;5073012;28;20571;-84
2021/06/03 05:07:34;;;;;;;;;;;16.50;46.30;;;;;;5073444;28;20029;-82
2021/06/03 05:10:00;;;;;;;7.45;2.55;;;17.20;45.20;;;;;;5070989;28;19912;-81
2021/06/03 05:12:26;;;;;;;6.03;3.75;;;18.00;43.10;;;;;;5073335;28;20027;-82
2021/06/03 05:14:52;;;;;;;8.50;3.35;;;19.10;41.20;;;;;;5076073;28;20032;-83
2021/06/03 05:17:17;;;;;;;6.53;3.40;;;20.00;39.00;;;;;;5076787;28;20630;-82
2021/06/03 05:19:43;;;;;;;5.55;2.75;;;20.50;38.60;;;;;;5077011;28;20029;-83
2021/06/03 05:22:09;;;;;;;5.28;2.83;;;21.60;37.10;;;;;;5075561;28;20025;-82
2021/06/03 05:24:35;;;;;;;7.35;4.35;;;22.70;35.40;;;;;;5075332;28;20032;-80
2021/06/03 05:27:02;;;;;;;6.13;2.30;;;22.60;33.20;;;;;;5075061;28;20052;-79
2021/06/03 05:29:29;;;;;;;8.98;3.15;;;22.50;33.30;;;;;;5075476;28;20027;-80
2021/06/03 05:31:55;;;;;;;3.97;2.43;;;22.40;32.90;;;;;;5075405;28;20036;-81
2021/06/03 05:34:21;;;;;;;5.07;2.42;;;22.70;33.10;;;;;;5075212;28;20021;-83
2021/06/03 05:36:47;;;;;;;6.63;2.30;;;23.40;32.60;;;;;;5075258;28;20404;-82
2021/06/03 05:39:13;;;;;;;5.10;2.72;;;24.30;31.40;;;;;;5075493;28;20059;-84
2021/06/03 05:41:40;;;;;;;3.65;2.42;;;24.90;30.00;;;;;;5076314;28;20032;-83
2021/06/03 05:44:09;;;;;;;8.68;2.92;;;25.00;29.60;;;;;;5075809;28;20084;-83
2021/06/03 05:46:36;;;;;;;5.22;2.20;;;24.80;29.50;;;;;;5075902;28;20487;-83
2021/06/03 05:49:06;;;;;;;7.82;2.17;;;24.40;29.80;;;;;;5075546;28;20369;-83
2021/06/03 05:51:32;;;;;;;5.72;1.95;;;25.00;29.50;;;;;;5076191;28;20028;-83
2021/06/03 05:53:58;;;;;;;5.82;2.42;;;25.70;29.00;;;;;;5073367;28;20021;-83
2021/06/03 05:56:27;;;;;;;3.80;1.77;;;25.70;28.70;;;;;;5095049;28;20025;-83
2021/06/03 05:58:54;;;;;;;5.55;2.33;;;25.40;28.40;;;;;;5086087;28;20671;-83
2021/06/03 06:01:20;;;;;;;7.40;2.25;;;25.50;28.50;;;;;;5076007;28;20099;-85
2021/06/03 06:06:28;;;;;;;6.03;2.92;;;;;;;;;;5079931;28;20036;-85
2021/06/03 06:08:56;;;;;;;4.07;2.00;;;26.10;28.50;;;;;;5075555;28;20073;-84
2021/06/03 06:11:25;;;;;;;5.40;1.83;;;28.90;26.80;;;;;;5075250;28;20056;-81
2021/06/03 06:13:52;;;;;;;5.22;1.73;;;29.80;26.20;;;;;;5074937;28;20013;-83
2021/06/03 06:16:18;;;;;;;6.20;2.47;;;30.60;25.20;;;;;;5073513;28;20039;-82
2021/06/03 06:18:45;;;;;;;4.35;1.35;;;31.10;24.90;;;;;;5074256;28;20074;-83
2021/06/03 06:21:14;;;;;;;8.30;3.63;;;29.70;24.70;;;;;;5074465;28;20056;-83
2021/06/03 06:23:39;;;;;;;8.82;3.40;;;28.70;25.20;;;;;;5073270;28;20021;-85
2021/06/03 06:26:08;;;;;;;8.75;2.67;;;28.60;25.10;;;;;;5074287;28;20069;-84
2021/06/03 06:28:35;;;;;;;6.95;3.78;;;28.50;25.00;;;;;;5074952;28;20027;-84
2021/06/03 06:31:01;;;;;;;;;;;28.10;25.80;;;;;;5073613;28;20025;-85
2021/06/03 06:33:27;;;;;;;10.27;2.65;;;28.60;25.70;;;;;;5073556;28;20323;-83
2021/06/03 06:35:53;;;;;;;10.85;1.85;;;29.60;25.00;;;;;;5074558;28;20116;-82
2021/06/03 06:38:20;;;;;;;4.97;1.87;;;;;;;;;;5074574;28;20095;-82
2021/06/03 06:40:48;;;;;;;12.00;2.40;;;32.20;23.60;;;;;;5074495;28;20229;-84
2021/06/03 06:43:15;;;;;;;4.97;1.63;;;32.00;23.30;;;;;;5065732;28;20021;-84
2021/06/03 06:45:42;;;;;;;4.95;1.92;;;31.20;23.60;;;;;;5071168;28;20381;-88
2021/06/03 06:48:10;;;;;;;6.55;2.33;;;31.50;23.90;;;;;;5066323;28;20078;-86
2021/06/03 06:50:37;;;;;;;4.65;2.85;;;30.80;23.40;;;;;;5057249;28;20039;-88
2021/06/03 06:53:04;;;;;;;6.13;2.13;;;31.00;23.80;;;;;;5071985;28;20179;-87
2021/06/03 06:55:30;;;;;;;;;;;31.30;23.50;;;;;;5075477;28;20354;-87
2021/06/03 06:57:58;;;;;;;4.82;1.85;;;31.80;23.60;;;;;;5077026;28;19904;-87
2021/06/03 07:00:27;;;;;;;8.35;1.73;;;31.10;23.10;;;;;;5082264;28;20028;-89
2021/06/03 07:02:53;;;;;;;4.35;1.50;;;31.10;23.50;;;;;;5080212;28;20017;-87
2021/06/03 07:05:19;;;;;;;8.23;1.85;;;32.10;23.10;;;;;;5076717;28;20129;-86
2021/06/03 07:07:45;;;;;;;5.28;2.38;;;32.90;22.60;;;;;;5068229;28;20088;-87
2021/06/03 07:10:12;;;;;;;4.87;1.93;;;32.20;22.70;;;;;;5071721;28;20059;-87
2021/06/03 07:12:40;;;;;;;4.13;2.15;;;32.10;22.30;;;;;;5075169;28;20040;-84
2021/06/03 07:15:09;;;;;;;7.78;2.45;;;32.00;22.40;;;;;;5076687;28;20092;-86
2021/06/03 07:17:36;;;;;;;7.65;1.80;;;31.70;22.60;;;;;;5078413;28;20067;-85
2021/06/03 07:20:11;;;;;;;;;;;31.70;22.60;;;;;;5081635;28;20023;-84
2021/06/03 07:22:39;;;;;;;10.77;2.33;;;31.10;23.20;;;;;;5075897;28;19915;-86
2021/06/03 07:25:06;;;;;;;9.48;2.58;;;30.20;23.10;;;;;;5074547;28;20077;-87
2021/06/03 07:27:37;;;;;;;4.50;1.77;;;29.90;23.20;;;;;;5076400;28;20056;-85
2021/06/03 07:30:05;;;;;;;9.63;3.60;;;30.90;22.90;;;;;;5074962;28;20070;-86
2021/06/03 07:32:31;;;;;;;4.38;2.15;;;31.80;22.60;;;;;;5075772;28;20029;-91
2021/06/03 07:34:57;;;;;;;8.83;2.37;;;31.80;22.80;;;;;;5079444;28;20031;-85
2021/06/03 07:37:23;;;;;;;11.47;3.10;;;32.00;22.10;;;;;;5080218;28;20383;-87
2021/06/03 07:39:50;;;;;;;8.50;1.57;;;31.20;22.20;;;;;;5079115;28;20024;-85
2021/06/03 07:42:16;;;;;;;6.05;1.75;;;31.80;22.30;;;;;;5074818;28;20345;-85
2021/06/03 07:44:46;;;;;;;7.57;1.67;;;32.10;22.10;;;;;;5076776;28;20036;-89
2021/06/03 07:47:15;;;;;;;3.72;1.65;;;31.10;22.00;;;;;;5070548;28;20021;-88
2021/06/03 07:49:41;;;;;;;3.20;1.20;;;31.70;22.40;;;;;;5074965;28;20028;-86
2021/06/03 07:52:08;;;;;;;4.10;1.23;;;31.20;22.30;;;;;;5076891;28;20028;-88
2021/06/03 07:54:36;;;;;;;7.53;1.75;;;31.90;22.20;;;;;;5076338;28;20261;-88
2021/06/03 07:57:07;;;;;;;3.00;1.83;;;32.50;21.80;;;;;;5076925;28;20142;-87
2021/06/03 07:59:33;;;;;;;5.35;1.58;;;32.80;21.60;;;;;;5077356;28;20016;-87
2021/06/03 08:02:07;;;;;;;5.47;1.40;;;32.00;21.80;;;;;;5065485;28;20048;-87
2021/06/03 08:04:33;;;;;;;3.05;1.15;;;31.70;21.80;;;;;;5094097;28;20498;-84
2021/06/03 08:07:03;;;;;;;8.40;2.30;;;31.60;21.90;;;;;;5094555;28;20013;-86
2021/06/03 08:09:29;;;;;;;5.88;1.45;;;31.40;22.40;;;;;;5088020;28;20440;-87
2021/06/03 08:11:55;;;;;;;7.33;2.87;;;32.40;21.90;;;;;;5075993;28;20074;-86
2021/06/03 08:14:21;;;;;;;9.90;2.08;;;32.50;21.50;;;;;;5075439;28;20377;-87
2021/06/03 08:16:47;;;;;;;7.05;1.77;;;31.90;22.00;;;;;;5075297;28;20079;-86
2021/06/03 08:19:19;;;;;;;5.13;1.70;;;31.80;21.70;;;;;;5074771;28;20020;-88
2021/06/03 08:21:46;;;;;;;4.68;1.80;;;31.10;21.70;;;;;;5076659;28;20092;-86
2021/06/03 08:24:13;;;;;;;13.60;2.00;;;31.90;21.90;;;;;;5074719;28;20027;-87
2021/06/03 08:26:40;;;;;;;3.92;1.60;;;32.40;21.70;;;;;;5074559;28;20080;-87
2021/06/03 08:29:06;;;;;;;3.25;1.50;;;32.90;21.30;;;;;;5074087;28;20469;-87
2021/06/03 08:31:32;;;;;;;4.63;1.63;;;32.20;21.50;;;;;;5073990;28;20385;-87
2021/06/03 08:34:02;;;;;;;5.80;1.73;;;32.30;21.00;;;;;;5074243;28;20040;-84
2021/06/03 08:36:28;;;;;;;8.82;2.17;;;31.90;21.30;;;;;;5068764;28;20067;-87
2021/06/03 08:38:54;;;;;;;5.97;1.70;;;32.90;21.40;;;;;;5066536;28;20511;-87
2021/06/03 08:41:20;;;;;;;7.68;1.90;;;33.60;21.20;;;;;;5072434;28;20039;-86
2021/06/03 08:43:47;;;;;;;6.70;2.17;;;33.70;21.20;;;;;;5073480;28;20021;-88
2021/06/03 08:46:13;;;;;;;6.57;1.60;;;34.30;21.10;;;;;;5074582;28;20028;-87
2021/06/03 08:48:39;;;;;;;5.90;1.90;;;34.90;20.50;;;;;;5067345;28;20025;-87
2021/06/03 08:51:06;;;;;;;5.75;1.73;;;33.90;20.60;;;;;;5072657;28;20035;-87
2021/06/03 08:53:33;;;;;;;3.13;2.00;;;34.10;20.70;;;;;;5078505;28;20017;-85
2021/06/03 08:56:19;;;;;;;4.25;1.63;;;33.60;20.60;;;;;;5077873;28;20046;-87
2021/06/03 08:58:46;;;;;;;;;;;33.20;20.80;;;;;;5071038;28;20055;-83
2021/06/03 09:01:13;;;;;;;6.03;2.15;;;33.00;21.30;;;;;;5087490;28;19912;-86
2021/06/03 09:03:40;;;;;;;8.73;2.08;;;32.70;21.50;;;;;;5084188;28;20043;-87
2021/06/03 09:06:08;;;;;;;6.30;1.83;;;33.50;21.60;;;;;;5078729;28;20446;-88
2021/06/03 09:08:38;;;;;;;6.50;2.33;;;34.30;21.00;;;;;;5078766;28;20043;-87
2021/06/03 09:11:11;;;;;;;5.28;2.08;;;35.30;21.00;;;;;;5079341;28;20046;-88
2021/06/03 09:13:42;;;;;;;11.63;2.20;;;;;;;;;;5078250;28;20024;-87
2021/06/03 09:16:11;;;;;;;11.55;3.45;;;;;;;;;;5079772;28;20036;-88
2021/06/03 09:18:38;;;;;;;10.43;4.05;;;;;;;;;;5081978;28;20050;-88
2021/06/03 09:21:24;;;;;;;9.30;4.45;;;;;;;;;;5081762;28;20131;-87
2021/06/03 09:23:56;;;;;;;5.80;1.83;;;;;;;;;;5080093;28;20397;-85
2021/06/03 09:26:23;;;;;;;6.45;2.45;;;;;;;;;;5079990;28;20063;-86
2021/06/03 09:28:48;;;;;;;;;;;;;;;;;;5079231;28;20033;-86
2021/06/03 09:31:40;;;;;;;10.88;5.28;;;35.70;20.80;;;;;;5078320;28;19911;-86
2021/06/03 09:34:19;;;;;;;7.00;2.55;;;32.70;21.40;;;;;;5078383;28;20032;-85
2021/06/03 09:36:51;;;;;;;5.18;2.40;;;32.80;21.30;;;;;;5075694;28;20033;-86
2021/06/03 09:39:25;;;;;;;8.00;3.25;;;32.60;21.00;;;;;;5077030;28;20028;-90
2021/06/03 09:41:58;;;;;;;12.55;5.22;;;31.70;21.50;;;;;;5076811;28;20426;-86
2021/06/03 09:44:35;;;;;;;10.00;4.93;;;30.70;21.70;;;;;;5080983;28;20016;-87
2021/06/03 09:47:05;;;;;;;5.18;2.05;;;30.20;21.80;;;;;;5078160;28;20029;-88
2021/06/03 09:49:33;;;;;;;4.13;1.48;;;30.20;21.90;;;;;;5075626;28;20397;-87
2021/06/03 09:52:10;;;;;;;8.88;1.90;;;30.60;21.50;;;;;;5075550;28;20071;-86
2021/06/03 09:54:39;;;;;;;6.00;2.28;;;30.50;22.00;;;;;;5076393;28;20024;-87
2021/06/03 09:57:10;;;;;;;6.88;2.65;;;30.60;21.60;;;;;;5076418;28;20036;-87
2021/06/03 09:59:43;;;;;;;10.57;4.50;;;30.40;21.90;;;;;;5076996;28;20044;-87
2021/06/03 10:02:10;;;;;;;5.35;2.22;;;29.70;22.30;;;;;;5078543;28;20020;-86
2021/06/03 10:04:44;;;;;;;5.32;2.50;;;29.50;22.50;;;;;;5087906;28;20027;-87
2021/06/03 10:07:11;;;;;;;3.47;1.65;;;29.70;22.70;;;;;;5084113;28;20550;-85
2021/06/03 10:09:58;;;;;;;6.38;1.80;;;30.30;22.60;;;;;;5068304;28;20028;-86
2021/06/03 10:12:24;;;;;;;5.88;2.72;;;31.00;22.30;;;;;;5077301;28;20052;-88
2021/06/03 10:14:51;;;;;;;5.93;2.23;;;30.30;22.40;;;;;;5078450;28;20021;-88
2021/06/03 10:17:30;;;;;;;6.43;1.60;;;30.20;22.60;;;;;;5094403;28;20036;-87
2021/06/03 10:20:14;;;;;;;9.10;2.92;;;30.30;22.50;;;;;;5096365;28;20028;-86
2021/06/03 10:22:44;;;;;;;5.25;1.85;;;29.80;22.80;;;;;;5083390;28;20025;-88
2021/06/03 10:25:11;;;;;;;3.78;1.80;;;29.90;23.30;;;;;;5076268;28;20124;-88
2021/06/03 10:27:55;;;;;;;8.55;2.28;;;29.90;22.90;;;;;;5070932;28;20048;-87
2021/06/03 10:30:25;;;;;;;5.03;2.25;;;28.40;23.40;;;;;;5070003;28;20024;-87
2021/06/03 10:32:51;;;;;;;7.57;2.63;;;;;;;;;;5079186;28;20077;-88
2021/06/03 10:35:20;;;;;;;7.00;2.75;;;;;;;;;;5080028;28;20343;-87
2021/06/03 10:37:47;;;;;;;6.30;2.25;;;;;;;;;;5063469;28;20077;-85
2021/06/03 10:40:19;;;;;;;6.53;2.60;;;26.60;24.50;;;;;;5072206;28;20017;-89
2021/06/03 10:42:46;;;;;;;8.27;4.20;;;;;;;;;;5065318;28;20500;-87
2021/06/03 10:45:16;;;;;;;5.53;2.30;;;;;;;;;;5079634;28;20484;-87
2021/06/03 10:47:42;;;;;;;15.80;6.53;;;23.20;27.70;;;;;;5078229;28;20029;-89
2021/06/03 10:50:13;;;;;;;9.20;3.75;;;21.80;29.90;;;;;;5080363;28;20051;-89
2021/06/03 10:52:40;;;;;;;7.72;3.67;;;21.50;30.00;;;;;;5079216;28;20113;-88
2021/06/03 10:55:08;;;;;;;8.30;2.38;;;21.40;30.00;;;;;;5078529;28;20039;-88
2021/06/03 10:58:00;;;;;;;17.20;6.10;;;21.40;30.10;;;;;;5068378;28;20032;-85
2021/06/03 11:00:47;;;;;;;6.68;2.83;;;21.30;30.10;;;;;;5084326;28;20020;-86
2021/06/03 11:03:18;;;;;;;8.43;3.22;;;21.10;30.70;;;;;;5065651;28;20037;-87
2021/06/03 11:06:08;;;;;;;9.27;2.38;;;21.10;31.00;;;;;;5077479;28;20481;-86
2021/06/03 11:09:02;;;;;;;6.10;2.67;;;21.10;31.30;;;;;;5077920;28;20108;-86
2021/06/03 11:11:33;;;;;;;9.40;1.95;;;21.00;30.80;;;;;;5072365;28;20036;-88
2021/06/03 11:14:20;;;;;;;3.97;1.70;;;21.00;31.60;;;;;;5075078;28;20023;-88
2021/06/03 11:16:55;;;;;;;7.07;2.67;;;20.90;31.40;;;;;;5079157;28;20032;-87
2021/06/03 11:19:30;;;;;;;7.90;1.55;;;20.90;32.10;;;;;;5069301;28;20024;-85
2021/06/03 11:22:01;;;;;;;8.93;3.10;;;20.80;31.20;;;;;;5078587;28;20020;-86
2021/06/03 11:24:35;;;;;;;14.63;2.25;;;20.60;32.50;;;;;;5063044;28;20038;-89
2021/06/03 11:27:28;;;;;;;10.52;2.30;;;20.70;32.60;;;;;;5064411;28;20076;-90
2021/06/03 11:29:56;;;;;;;7.57;2.45;;;20.80;32.90;;;;;;5073581;28;20039;-90
2021/06/03 11:32:30;;;;;;;8.63;2.80;;;20.70;33.00;;;;;;5075713;28;20036;-88
2021/06/03 11:34:58;;;;;;;4.38;2.25;;;20.70;33.60;;;;;;5072305;28;20032;-90
2021/06/03 11:37:36;;;;;;;4.57;2.28;;;20.70;33.40;;;;;;5056845;28;20406;-86
2021/06/03 11:40:05;;;;;;;3.97;1.50;;;20.70;33.50;;;;;;5077221;28;20099;-89
2021/06/03 11:42:38;;;;;;;4.05;1.98;;;20.60;33.20;;;;;;5070003;28;20036;-85
2021/06/03 11:45:16;;;;;;;7.53;2.33;;;20.50;33.90;;;;;;5085370;28;20405;-87
2021/06/03 11:47:43;;;;;;;5.68;1.55;;;20.50;33.80;;;;;;5081264;28;20096;-88
2021/06/03 11:50:15;;;;;;;3.30;2.00;;;20.50;34.20;;;;;;5065833;28;20025;-89
2021/06/03 11:52:56;;;;;;;5.25;2.28;;;20.40;34.20;;;;;;5075543;28;20036;-89
2021/06/03 11:55:49;;;;;;;10.13;2.15;;;20.30;34.80;;;;;;5075925;28;20060;-88
2021/06/03 11:58:20;;;;;;;9.73;2.30;;;20.40;35.10;;;;;;5032894;28;20068;-86
2021/06/03 12:01:09;;;;;;;4.70;2.05;;;20.40;35.40;;;;;;5035972;28;20017;-87
2021/06/03 12:03:42;;;;;;;10.02;2.33;;;20.50;35.30;;;;;;4966758;29;20038;-85
2021/06/03 12:06:34;;;;;;;6.97;2.20;;;20.50;35.60;;;;;;4972936;29;20034;-85
2021/06/03 12:09:14;;;;;;;7.70;2.10;;;20.50;35.70;;;;;;4948761;29;20087;-84
2021/06/03 12:11:54;;;;;;;4.90;1.55;;;20.50;35.80;;;;;;4963302;29;20034;-86
2021/06/03 12:14:26;;;;;;;6.93;2.15;;;20.60;35.70;;;;;;4950550;29;20042;-88
2021/06/03 12:16:58;;;;;;;;;;;20.50;35.90;;;;;;4962744;29;20039;-86
2021/06/03 12:19:36;;;;;;;8.60;1.92;;;20.50;35.40;;;;;;4959929;29;19913;-86
2021/06/03 12:22:13;;;;;;;7.35;2.20;;;20.50;35.90;;;;;;4940071;29;20031;-86
2021/06/03 12:24:44;;;;;;;8.00;2.42;;;20.50;36.10;;;;;;4964967;29;20031;-88
2021/06/03 12:27:32;;;;;;;4.80;2.50;;;20.60;35.90;;;;;;4969943;28;20082;-85
2021/06/03 12:30:12;;;;;;;8.55;2.72;;;20.60;35.50;;;;;;4980283;29;20007;-84
2021/06/03 12:32:38;;;;;;;12.75;2.65;;;20.60;36.30;;;;;;4974928;29;20122;-89
2021/06/03 12:35:05;;;;;;;10.02;2.35;;;20.50;36.90;;;;;;4970098;28;20459;-86
2021/06/03 12:37:33;;;;;;;;;;;20.60;36.80;;;;;;4979073;28;20658;-86
2021/06/03 12:40:00;;;;;;;;;;;20.50;36.60;;;;;;4988709;28;19983;-87
2021/06/03 12:42:27;;;;;;;;;;;20.50;36.90;;;;;;5079642;28;19904;-87
2021/06/03 12:44:58;;;;;;;5.72;2.75;;;20.50;37.30;;;;;;5077757;28;19927;-89
2021/06/03 12:47:26;;;;;;;9.27;2.90;;;20.50;37.80;;;;;;5079896;28;20044;-88
2021/06/03 12:50:04;;;;;;;5.72;2.60;;;20.60;37.70;;;;;;5061214;28;20052;-86
2021/06/03 12:52:30;;;;;;;4.25;2.20;;;20.60;37.90;;;;;;5060827;28;20036;-87
2021/06/03 12:55:00;;;;;;;7.32;2.97;;;20.60;37.80;;;;;;5080994;28;20013;-89
2021/06/03 12:57:27;;;;;;;6.72;2.38;;;20.60;38.30;;;;;;5081954;28;20033;-89
2021/06/03 12:59:56;;;;;;;4.78;2.20;;;20.60;38.00;;;;;;5087054;28;20358;-86
2021/06/03 13:02:31;;;;;;;3.95;2.05;;;20.70;38.00;;;;;;5086836;28;20059;-89
2021/06/03 13:04:58;;;;;;;7.60;2.90;;;20.60;37.70;;;;;;5081255;28;20017;-88
2021/06/03 13:07:38;;;;;;;11.05;2.38;;;20.70;38.10;;;;;;5078456;28;20020;-87